sensor_id;sensor_type;location;lat;lon;timestamp;pressure;altitude;pressure_sealevel;temperature
67509;BMP280;54354;44.724;11.284;2022-10-26T00:02:22;102065.72;;;23.01
67509;BMP280;54354;44.724;11.284;2022-10-26T00:04:48;102072.03;;;22.98
67509;BMP280;54354;44.724;11.284;2022-10-26T00:07:13;102064.88;;;22.95
67509;BMP280;54354;44.724;11.284;2022-10-26T00:09:39;102075.09;;;22.91
67509;BMP280;54354;44.724;11.284;2022-10-26T00:12:04;102064.75;;;22.89
67509;BMP280;54354;44.724;11.284;2022-10-26T00:14:30;102068.38;;;22.86
67509;BMP280;54354;44.724;11.284;2022-10-26T00:16:56;102065.09;;;22.82
67509;BMP280;54354;44.724;11.284;2022-10-26T00:19:21;102073.66;;;22.81
67509;BMP280;54354;44.724;11.284;2022-10-26T00:21:47;102073.19;;;22.82
67509;BMP280;54354;44.724;11.284;2022-10-26T00:24:13;102075.75;;;22.86
67509;BMP280;54354;44.724;11.284;2022-10-26T00:26:38;102069.31;;;22.83
67509;BMP280;54354;44.724;11.284;2022-10-26T00:29:04;102069.00;;;22.81
67509;BMP280;54354;44.724;11.284;2022-10-26T00:31:30;102074.59;;;22.77
67509;BMP280;54354;44.724;11.284;2022-10-26T00:33:56;102081.94;;;22.77
67509;BMP280;54354;44.724;11.284;2022-10-26T00:36:23;102081.09;;;22.71
67509;BMP280;54354;44.724;11.284;2022-10-26T00:38:53;102083.94;;;22.67
67509;BMP280;54354;44.724;11.284;2022-10-26T00:41:20;102086.41;;;23.04
67509;BMP280;54354;44.724;11.284;2022-10-26T00:43:46;102095.63;;;22.73
67509;BMP280;54354;44.724;11.284;2022-10-26T00:46:16;102091.94;;;22.62
67509;BMP280;54354;44.724;11.284;2022-10-26T00:48:45;102086.25;;;22.60
67509;BMP280;54354;44.724;11.284;2022-10-26T00:51:22;102093.47;;;22.54
67509;BMP280;54354;44.724;11.284;2022-10-26T00:53:50;102103.06;;;22.55
67509;BMP280;54354;44.724;11.284;2022-10-26T00:56:17;102096.94;;;22.54
67509;BMP280;54354;44.724;11.284;2022-10-26T00:58:43;102089.75;;;22.51
67509;BMP280;54354;44.724;11.284;2022-10-26T01:01:09;102089.47;;;22.49
67509;BMP280;54354;44.724;11.284;2022-10-26T01:03:35;102083.78;;;22.47
67509;BMP280;54354;44.724;11.284;2022-10-26T01:06:02;102079.75;;;22.42
67509;BMP280;54354;44.724;11.284;2022-10-26T01:08:28;102082.75;;;22.44
67509;BMP280;54354;44.724;11.284;2022-10-26T01:10:56;102083.19;;;22.43
67509;BMP280;54354;44.724;11.284;2022-10-26T01:13:23;102080.06;;;22.44
67509;BMP280;54354;44.724;11.284;2022-10-26T01:16:03;102087.56;;;22.40
67509;BMP280;54354;44.724;11.284;2022-10-26T01:18:42;102091.47;;;22.39
67509;BMP280;54354;44.724;11.284;2022-10-26T01:29:19;102074.53;;;22.39
67509;BMP280;54354;44.724;11.284;2022-10-26T01:31:55;102067.91;;;22.40
67509;BMP280;54354;44.724;11.284;2022-10-26T01:34:34;102061.34;;;22.41
67509;BMP280;54354;44.724;11.284;2022-10-26T01:37:20;102059.91;;;22.45
67509;BMP280;54354;44.724;11.284;2022-10-26T01:39:52;102049.47;;;22.38
67509;BMP280;54354;44.724;11.284;2022-10-26T01:42:20;102045.00;;;22.35
67509;BMP280;54354;44.724;11.284;2022-10-26T01:44:52;102038.25;;;22.31
67509;BMP280;54354;44.724;11.284;2022-10-26T01:47:19;102044.91;;;22.30
67509;BMP280;54354;44.724;11.284;2022-10-26T01:49:52;102048.19;;;22.25
67509;BMP280;54354;44.724;11.284;2022-10-26T01:52:19;102050.47;;;22.26
67509;BMP280;54354;44.724;11.284;2022-10-26T01:54:44;102041.31;;;22.24
67509;BMP280;54354;44.724;11.284;2022-10-26T01:57:12;102038.03;;;22.19
67509;BMP280;54354;44.724;11.284;2022-10-26T01:59:52;102051.50;;;22.19
67509;BMP280;54354;44.724;11.284;2022-10-26T02:15:58;102046.94;;;22.11
67509;BMP280;54354;44.724;11.284;2022-10-26T02:21:17;102043.03;;;22.12
67509;BMP280;54354;44.724;11.284;2022-10-26T02:23:46;102044.97;;;22.11
67509;BMP280;54354;44.724;11.284;2022-10-26T02:26:14;102044.69;;;22.09
67509;BMP280;54354;44.724;11.284;2022-10-26T02:28:44;102040.31;;;22.12
67509;BMP280;54354;44.724;11.284;2022-10-26T02:31:12;102041.81;;;22.13
67509;BMP280;54354;44.724;11.284;2022-10-26T02:33:43;102030.88;;;22.07
67509;BMP280;54354;44.724;11.284;2022-10-26T02:36:13;102032.53;;;22.05
67509;BMP280;54354;44.724;11.284;2022-10-26T02:38:41;102037.03;;;22.08
67509;BMP280;54354;44.724;11.284;2022-10-26T02:41:07;102031.81;;;22.04
67509;BMP280;54354;44.724;11.284;2022-10-26T02:43:38;102027.50;;;21.98
67509;BMP280;54354;44.724;11.284;2022-10-26T02:46:09;102024.22;;;21.94
67509;BMP280;54354;44.724;11.284;2022-10-26T02:48:35;102035.59;;;21.98
67509;BMP280;54354;44.724;11.284;2022-10-26T02:51:15;102028.56;;;21.91
67509;BMP280;54354;44.724;11.284;2022-10-26T02:53:49;102031.88;;;21.86
67509;BMP280;54354;44.724;11.284;2022-10-26T02:56:33;102030.66;;;21.87
67509;BMP280;54354;44.724;11.284;2022-10-26T02:59:03;102028.44;;;21.85
67509;BMP280;54354;44.724;11.284;2022-10-26T03:01:30;102028.28;;;21.89
67509;BMP280;54354;44.724;11.284;2022-10-26T03:03:58;102026.31;;;21.89
67509;BMP280;54354;44.724;11.284;2022-10-26T03:06:24;102026.03;;;21.87
67509;BMP280;54354;44.724;11.284;2022-10-26T03:08:50;102041.00;;;21.88
67509;BMP280;54354;44.724;11.284;2022-10-26T03:11:17;102043.72;;;21.88
67509;BMP280;54354;44.724;11.284;2022-10-26T03:13:42;102044.44;;;21.89
67509;BMP280;54354;44.724;11.284;2022-10-26T03:16:08;102049.41;;;21.91
67509;BMP280;54354;44.724;11.284;2022-10-26T03:18:34;102050.59;;;21.89
67509;BMP280;54354;44.724;11.284;2022-10-26T03:20:59;102053.75;;;21.88
67509;BMP280;54354;44.724;11.284;2022-10-26T03:23:25;102058.41;;;21.87
67509;BMP280;54354;44.724;11.284;2022-10-26T03:25:50;102055.25;;;21.89
67509;BMP280;54354;44.724;11.284;2022-10-26T03:28:16;102057.94;;;21.89
67509;BMP280;54354;44.724;11.284;2022-10-26T03:30:41;102042.34;;;21.84
67509;BMP280;54354;44.724;11.284;2022-10-26T03:33:07;102039.84;;;21.80
67509;BMP280;54354;44.724;11.284;2022-10-26T03:35:32;102056.34;;;21.82
67509;BMP280;54354;44.724;11.284;2022-10-26T03:37:57;102047.00;;;21.83
67509;BMP280;54354;44.724;11.284;2022-10-26T03:40:23;102053.63;;;21.82
67509;BMP280;54354;44.724;11.284;2022-10-26T03:42:48;102053.31;;;21.80
67509;BMP280;54354;44.724;11.284;2022-10-26T03:45:14;102055.25;;;21.80
67509;BMP280;54354;44.724;11.284;2022-10-26T03:47:44;102048.09;;;21.77
67509;BMP280;54354;44.724;11.284;2022-10-26T03:50:10;102051.25;;;22.17
67509;BMP280;54354;44.724;11.284;2022-10-26T03:52:36;102059.91;;;21.88
67509;BMP280;54354;44.724;11.284;2022-10-26T03:55:02;102062.94;;;21.81
67509;BMP280;54354;44.724;11.284;2022-10-26T03:57:27;102064.28;;;21.77
67509;BMP280;54354;44.724;11.284;2022-10-26T03:59:52;102059.63;;;21.77
67509;BMP280;54354;44.724;11.284;2022-10-26T04:02:18;102045.84;;;21.75
67509;BMP280;54354;44.724;11.284;2022-10-26T04:04:43;102046.00;;;21.72
67509;BMP280;54354;44.724;11.284;2022-10-26T04:07:09;102055.78;;;21.69
67509;BMP280;54354;44.724;11.284;2022-10-26T04:09:35;102055.00;;;21.69
67509;BMP280;54354;44.724;11.284;2022-10-26T04:12:00;102054.56;;;21.70
67509;BMP280;54354;44.724;11.284;2022-10-26T04:14:25;102051.56;;;21.68
67509;BMP280;54354;44.724;11.284;2022-10-26T04:16:51;102049.03;;;21.65
67509;BMP280;54354;44.724;11.284;2022-10-26T04:19:16;102047.22;;;21.62
67509;BMP280;54354;44.724;11.284;2022-10-26T04:21:42;102045.44;;;21.58
67509;BMP280;54354;44.724;11.284;2022-10-26T04:24:09;102027.47;;;21.55
67509;BMP280;54354;44.724;11.284;2022-10-26T04:26:35;102022.81;;;21.56
67509;BMP280;54354;44.724;11.284;2022-10-26T04:29:00;102030.63;;;21.54
67509;BMP280;54354;44.724;11.284;2022-10-26T04:31:29;102018.81;;;21.51
67509;BMP280;54354;44.724;11.284;2022-10-26T04:33:54;102018.03;;;21.51
67509;BMP280;54354;44.724;11.284;2022-10-26T04:36:19;102018.03;;;21.51
67509;BMP280;54354;44.724;11.284;2022-10-26T04:38:47;102018.19;;;21.47
67509;BMP280;54354;44.724;11.284;2022-10-26T04:41:13;102023.16;;;21.49
67509;BMP280;54354;44.724;11.284;2022-10-26T04:43:38;102014.75;;;21.47
67509;BMP280;54354;44.724;11.284;2022-10-26T04:46:04;102009.81;;;21.45
67509;BMP280;54354;44.724;11.284;2022-10-26T04:48:29;102012.97;;;21.44
67509;BMP280;54354;44.724;11.284;2022-10-26T04:50:58;102009.69;;;21.40
67509;BMP280;54354;44.724;11.284;2022-10-26T04:53:24;102019.25;;;21.41
67509;BMP280;54354;44.724;11.284;2022-10-26T04:55:55;102014.94;;;21.34
67509;BMP280;54354;44.724;11.284;2022-10-26T04:58:21;102023.16;;;21.40
67509;BMP280;54354;44.724;11.284;2022-10-26T05:00:46;102027.34;;;21.41
67509;BMP280;54354;44.724;11.284;2022-10-26T05:03:12;102018.81;;;21.42
67509;BMP280;54354;44.724;11.284;2022-10-26T05:05:37;102028.41;;;21.43
67509;BMP280;54354;44.724;11.284;2022-10-26T05:08:03;102033.03;;;21.43
67509;BMP280;54354;44.724;11.284;2022-10-26T05:10:29;102039.63;;;21.42
67509;BMP280;54354;44.724;11.284;2022-10-26T05:12:56;102040.84;;;21.41
67509;BMP280;54354;44.724;11.284;2022-10-26T05:15:22;102043.06;;;21.42
67509;BMP280;54354;44.724;11.284;2022-10-26T05:17:55;102042.63;;;21.35
67509;BMP280;54354;44.724;11.284;2022-10-26T05:20:21;102054.47;;;21.37
67509;BMP280;54354;44.724;11.284;2022-10-26T05:22:53;102059.53;;;21.35
67509;BMP280;54354;44.724;11.284;2022-10-26T05:25:19;102062.72;;;21.34
67509;BMP280;54354;44.724;11.284;2022-10-26T05:27:44;102065.41;;;21.34
67509;BMP280;54354;44.724;11.284;2022-10-26T05:30:11;102062.22;;;21.35
67509;BMP280;54354;44.724;11.284;2022-10-26T05:32:36;102068.38;;;21.36
67509;BMP280;54354;44.724;11.284;2022-10-26T05:35:02;102065.50;;;21.39
67509;BMP280;54354;44.724;11.284;2022-10-26T05:37:28;102058.94;;;21.40
67509;BMP280;54354;44.724;11.284;2022-10-26T05:39:54;102065.25;;;21.37
67509;BMP280;54354;44.724;11.284;2022-10-26T05:42:19;102058.78;;;21.35
67509;BMP280;54354;44.724;11.284;2022-10-26T05:44:45;102057.16;;;21.28
67509;BMP280;54354;44.724;11.284;2022-10-26T05:47:11;102058.97;;;21.22
67509;BMP280;54354;44.724;11.284;2022-10-26T05:49:36;102067.78;;;21.22
67509;BMP280;54354;44.724;11.284;2022-10-26T05:52:02;102072.72;;;21.24
67509;BMP280;54354;44.724;11.284;2022-10-26T05:54:27;102073.03;;;21.26
67509;BMP280;54354;44.724;11.284;2022-10-26T05:56:53;102073.03;;;21.26
67509;BMP280;54354;44.724;11.284;2022-10-26T05:59:19;102065.38;;;21.24
67509;BMP280;54354;44.724;11.284;2022-10-26T06:04:45;102062.09;;;21.20
67509;BMP280;54354;44.724;11.284;2022-10-26T06:07:16;102065.09;;;21.22
67509;BMP280;54354;44.724;11.284;2022-10-26T06:09:42;102071.22;;;21.23
67509;BMP280;54354;44.724;11.284;2022-10-26T06:12:09;102077.34;;;21.23
67509;BMP280;54354;44.724;11.284;2022-10-26T06:14:35;102082.31;;;21.25
67509;BMP280;54354;44.724;11.284;2022-10-26T06:17:20;102089.91;;;21.26
67509;BMP280;54354;44.724;11.284;2022-10-26T06:20:01;102081.25;;;21.32
67509;BMP280;54354;44.724;11.284;2022-10-26T06:22:41;102093.53;;;21.33
67509;BMP280;54354;44.724;11.284;2022-10-26T06:25:26;102104.91;;;21.37
67509;BMP280;54354;44.724;11.284;2022-10-26T06:28:07;102098.91;;;21.42
67509;BMP280;54354;44.724;11.284;2022-10-26T06:30:35;102110.59;;;21.48
67509;BMP280;54354;44.724;11.284;2022-10-26T06:33:01;102112.69;;;21.53
67509;BMP280;54354;44.724;11.284;2022-10-26T06:38:03;102119.44;;;21.57
67509;BMP280;54354;44.724;11.284;2022-10-26T06:40:31;102120.47;;;21.60
67509;BMP280;54354;44.724;11.284;2022-10-26T06:42:58;102128.69;;;21.66
67509;BMP280;54354;44.724;11.284;2022-10-26T06:45:24;102139.63;;;21.71
67509;BMP280;54354;44.724;11.284;2022-10-26T06:48:13;102138.88;;;21.71
67509;BMP280;54354;44.724;11.284;2022-10-26T06:50:50;102147.88;;;21.77
67509;BMP280;54354;44.724;11.284;2022-10-26T06:55:49;102151.44;;;21.83
67509;BMP280;54354;44.724;11.284;2022-10-26T06:58:19;102158.66;;;21.86
67509;BMP280;54354;44.724;11.284;2022-10-26T07:00:48;102154.88;;;21.93
67509;BMP280;54354;44.724;11.284;2022-10-26T07:03:15;102153.38;;;22.01
67509;BMP280;54354;44.724;11.284;2022-10-26T07:05:42;102154.56;;;22.00
67509;BMP280;54354;44.724;11.284;2022-10-26T07:08:07;102144.38;;;22.04
67509;BMP280;54354;44.724;11.284;2022-10-26T07:10:33;102151.53;;;22.07
67509;BMP280;54354;44.724;11.284;2022-10-26T07:13:06;102155.13;;;22.13
67509;BMP280;54354;44.724;11.284;2022-10-26T07:15:33;102149.16;;;22.18
67509;BMP280;54354;44.724;11.284;2022-10-26T07:17:59;102164.09;;;22.19
67509;BMP280;54354;44.724;11.284;2022-10-26T07:20:25;102170.09;;;22.23
67509;BMP280;54354;44.724;11.284;2022-10-26T07:22:54;102156.63;;;22.23
67509;BMP280;54354;44.724;11.284;2022-10-26T07:25:21;102160.03;;;22.33
67509;BMP280;54354;44.724;11.284;2022-10-26T07:27:46;102169.16;;;22.35
67509;BMP280;54354;44.724;11.284;2022-10-26T07:30:12;102169.00;;;22.39
67509;BMP280;54354;44.724;11.284;2022-10-26T07:32:37;102174.72;;;22.41
67509;BMP280;54354;44.724;11.284;2022-10-26T07:35:03;102178.72;;;22.45
67509;BMP280;54354;44.724;11.284;2022-10-26T07:37:29;102175.84;;;22.49
67509;BMP280;54354;44.724;11.284;2022-10-26T07:39:54;102184.81;;;22.55
67509;BMP280;54354;44.724;11.284;2022-10-26T07:42:20;102186.47;;;22.62
67509;BMP280;54354;44.724;11.284;2022-10-26T07:44:48;102186.75;;;22.64
67509;BMP280;54354;44.724;11.284;2022-10-26T07:47:14;102197.22;;;22.71
67509;BMP280;54354;44.724;11.284;2022-10-26T07:49:40;102197.81;;;22.75
67509;BMP280;54354;44.724;11.284;2022-10-26T07:52:05;102197.91;;;22.81
67509;BMP280;54354;44.724;11.284;2022-10-26T07:54:31;102195.78;;;22.85
67509;BMP280;54354;44.724;11.284;2022-10-26T07:56:57;102193.41;;;22.87
67509;BMP280;54354;44.724;11.284;2022-10-26T07:59:22;102193.97;;;22.91
67509;BMP280;54354;44.724;11.284;2022-10-26T08:01:48;102192.09;;;22.97
67509;BMP280;54354;44.724;11.284;2022-10-26T08:04:14;102190.75;;;23.01
67509;BMP280;54354;44.724;11.284;2022-10-26T08:06:39;102185.44;;;23.07
67509;BMP280;54354;44.724;11.284;2022-10-26T08:09:05;102187.81;;;23.14
67509;BMP280;54354;44.724;11.284;2022-10-26T08:11:31;102193.31;;;23.20
67509;BMP280;54354;44.724;11.284;2022-10-26T08:13:56;102194.91;;;23.26
67509;BMP280;54354;44.724;11.284;2022-10-26T08:16:22;102195.78;;;23.32
67509;BMP280;54354;44.724;11.284;2022-10-26T08:18:48;102196.38;;;23.36
67509;BMP280;54354;44.724;11.284;2022-10-26T08:21:14;102202.63;;;23.43
67509;BMP280;54354;44.724;11.284;2022-10-26T08:23:40;102192.97;;;23.51
67509;BMP280;54354;44.724;11.284;2022-10-26T08:26:06;102193.53;;;23.55
67509;BMP280;54354;44.724;11.284;2022-10-26T08:28:32;102197.81;;;23.61
67509;BMP280;54354;44.724;11.284;2022-10-26T08:30:58;102193.97;;;23.68
67509;BMP280;54354;44.724;11.284;2022-10-26T08:33:23;102189.16;;;23.72
67509;BMP280;54354;44.724;11.284;2022-10-26T08:35:57;102184.00;;;23.74
67509;BMP280;54354;44.724;11.284;2022-10-26T08:38:23;102187.09;;;23.82
67509;BMP280;54354;44.724;11.284;2022-10-26T08:40:49;102187.63;;;23.86
67509;BMP280;54354;44.724;11.284;2022-10-26T08:43:20;102186.69;;;23.89
67509;BMP280;54354;44.724;11.284;2022-10-26T08:45:58;102182.41;;;23.97
67509;BMP280;54354;44.724;11.284;2022-10-26T08:48:29;102181.78;;;24.02
67509;BMP280;54354;44.724;11.284;2022-10-26T08:51:01;102185.03;;;24.06
67509;BMP280;54354;44.724;11.284;2022-10-26T08:53:45;102187.38;;;24.13
67509;BMP280;54354;44.724;11.284;2022-10-26T08:56:20;102187.81;;;24.12
67509;BMP280;54354;44.724;11.284;2022-10-26T08:58:56;102187.81;;;24.12
67509;BMP280;54354;44.724;11.284;2022-10-26T09:01:22;102201.75;;;24.19
67509;BMP280;54354;44.724;11.284;2022-10-26T09:03:48;102198.84;;;24.23
67509;BMP280;54354;44.724;11.284;2022-10-26T09:09:07;102197.69;;;24.30
67509;BMP280;54354;44.724;11.284;2022-10-26T09:17:12;102195.59;;;24.39
67509;BMP280;54354;44.724;11.284;2022-10-26T09:19:50;102203.53;;;24.43
67509;BMP280;54354;44.724;11.284;2022-10-26T09:25:10;102194.81;;;24.53
67509;BMP280;54354;44.724;11.284;2022-10-26T09:27:42;102201.00;;;24.54
67509;BMP280;54354;44.724;11.284;2022-10-26T09:30:17;102198.09;;;24.57
67509;BMP280;54354;44.724;11.284;2022-10-26T09:32:59;102198.38;;;24.60
67509;BMP280;54354;44.724;11.284;2022-10-26T09:35:50;102198.16;;;24.63
67509;BMP280;54354;44.724;11.284;2022-10-26T09:38:35;102199.13;;;25.01
67509;BMP280;54354;44.724;11.284;2022-10-26T09:43:46;102194.03;;;24.68
67509;BMP280;54354;44.724;11.284;2022-10-26T09:46:33;102192.56;;;24.67
67509;BMP280;54354;44.724;11.284;2022-10-26T09:49:05;102196.53;;;24.71
67509;BMP280;54354;44.724;11.284;2022-10-26T09:51:37;102199.75;;;24.70
67509;BMP280;54354;44.724;11.284;2022-10-26T09:54:17;102205.72;;;24.74
67509;BMP280;54354;44.724;11.284;2022-10-26T09:56:46;102212.91;;;24.77
67509;BMP280;54354;44.724;11.284;2022-10-26T09:59:13;102212.91;;;25.17
67509;BMP280;54354;44.724;11.284;2022-10-26T10:01:40;102219.53;;;24.96
67509;BMP280;54354;44.724;11.284;2022-10-26T10:06:38;102219.50;;;24.91
67509;BMP280;54354;44.724;11.284;2022-10-26T10:09:09;102224.41;;;24.92
67509;BMP280;54354;44.724;11.284;2022-10-26T10:11:53;102213.34;;;24.96
67509;BMP280;54354;44.724;11.284;2022-10-26T10:14:36;102215.34;;;24.95
67509;BMP280;54354;44.724;11.284;2022-10-26T10:17:16;102209.44;;;24.97
67509;BMP280;54354;44.724;11.284;2022-10-26T10:19:43;102215.56;;;25.38
67509;BMP280;54354;44.724;11.284;2022-10-26T10:24:42;102209.09;;;25.09
67509;BMP280;54354;44.724;11.284;2022-10-26T10:29:43;102207.88;;;25.10
67509;BMP280;54354;44.724;11.284;2022-10-26T10:32:35;102212.22;;;25.23
67509;BMP280;54354;44.724;11.284;2022-10-26T10:35:01;102221.78;;;25.18
67509;BMP280;54354;44.724;11.284;2022-10-26T10:37:33;102212.91;;;25.17
67509;BMP280;54354;44.724;11.284;2022-10-26T10:42:38;102212.91;;;25.23
67509;BMP280;54354;44.724;11.284;2022-10-26T10:45:06;102212.75;;;25.27
67509;BMP280;54354;44.724;11.284;2022-10-26T10:47:57;102207.41;;;25.32
67509;BMP280;54354;44.724;11.284;2022-10-26T10:50:24;102202.94;;;25.35
67509;BMP280;54354;44.724;11.284;2022-10-26T10:52:49;102205.94;;;25.37
67509;BMP280;54354;44.724;11.284;2022-10-26T10:55:20;102201.00;;;25.35
67509;BMP280;54354;44.724;11.284;2022-10-26T10:57:59;102196.84;;;25.40
67509;BMP280;54354;44.724;11.284;2022-10-26T11:00:26;102201.81;;;25.47
67509;BMP280;54354;44.724;11.284;2022-10-26T11:03:43;102184.56;;;25.44
67509;BMP280;54354;44.724;11.284;2022-10-26T11:06:00;102186.31;;;25.47
67509;BMP280;54354;44.724;11.284;2022-10-26T11:16:02;102180.25;;;25.58
67509;BMP280;54354;44.724;11.284;2022-10-26T11:18:42;102183.75;;;25.64
67509;BMP280;54354;44.724;11.284;2022-10-26T11:21:30;102175.66;;;25.70
67509;BMP280;54354;44.724;11.284;2022-10-26T11:26:42;102176.91;;;25.69
67509;BMP280;54354;44.724;11.284;2022-10-26T11:29:18;102172.00;;;25.73
67509;BMP280;54354;44.724;11.284;2022-10-26T11:31:50;102171.50;;;25.74
67509;BMP280;54354;44.724;11.284;2022-10-26T11:34:42;102175.25;;;25.83
67509;BMP280;54354;44.724;11.284;2022-10-26T11:37:11;102173.78;;;25.81
67509;BMP280;54354;44.724;11.284;2022-10-26T11:42:20;102176.31;;;25.91
67509;BMP280;54354;44.724;11.284;2022-10-26T11:44:50;102175.63;;;25.96
67509;BMP280;54354;44.724;11.284;2022-10-26T11:47:45;102165.53;;;26.02
67509;BMP280;54354;44.724;11.284;2022-10-26T11:50:24;102167.75;;;26.03
67509;BMP280;54354;44.724;11.284;2022-10-26T11:53:01;102163.09;;;26.04
67509;BMP280;54354;44.724;11.284;2022-10-26T11:55:29;102163.13;;;26.09
67509;BMP280;54354;44.724;11.284;2022-10-26T11:57:56;102161.91;;;26.10
67509;BMP280;54354;44.724;11.284;2022-10-26T12:00:22;102157.97;;;26.17
67509;BMP280;54354;44.724;11.284;2022-10-26T12:03:02;102155.75;;;26.21
67509;BMP280;54354;44.724;11.284;2022-10-26T12:05:48;102156.56;;;26.27
67509;BMP280;54354;44.724;11.284;2022-10-26T12:10:51;102160.06;;;26.33
67509;BMP280;54354;44.724;11.284;2022-10-26T12:13:25;102161.56;;;26.40
67509;BMP280;54354;44.724;11.284;2022-10-26T12:16:21;102154.63;;;26.39
67509;BMP280;54354;44.724;11.284;2022-10-26T12:21:44;102156.44;;;26.53
67509;BMP280;54354;44.724;11.284;2022-10-26T12:31:51;102161.66;;;26.62
67509;BMP280;54354;44.724;11.284;2022-10-26T12:39:31;102136.75;;;26.69
67509;BMP280;54354;44.724;11.284;2022-10-26T12:42:24;102134.50;;;26.73
67509;BMP280;54354;44.724;11.284;2022-10-26T12:52:40;102132.81;;;26.82
67509;BMP280;54354;44.724;11.284;2022-10-26T13:00:54;102138.00;;;26.91
67509;BMP280;54354;44.724;11.284;2022-10-26T13:06:19;102137.28;;;27.01
67509;BMP280;54354;44.724;11.284;2022-10-26T13:08:54;102138.28;;;27.04
67509;BMP280;54354;44.724;11.284;2022-10-26T13:11:31;102143.72;;;27.04
67509;BMP280;54354;44.724;11.284;2022-10-26T13:14:00;102138.78;;;27.08
67509;BMP280;54354;44.724;11.284;2022-10-26T13:16:27;102132.13;;;27.15
67509;BMP280;54354;44.724;11.284;2022-10-26T13:18:54;102142.25;;;27.14
67509;BMP280;54354;44.724;11.284;2022-10-26T13:21:22;102136.09;;;27.14
67509;BMP280;54354;44.724;11.284;2022-10-26T13:23:57;102135.59;;;27.15
67509;BMP280;54354;44.724;11.284;2022-10-26T13:26:28;102127.16;;;27.19
67509;BMP280;54354;44.724;11.284;2022-10-26T13:28:56;102124.19;;;27.22
67509;BMP280;54354;44.724;11.284;2022-10-26T13:34:04;102125.91;;;27.25
67509;BMP280;54354;44.724;11.284;2022-10-26T13:36:44;102124.69;;;27.26
67509;BMP280;54354;44.724;11.284;2022-10-26T13:39:16;102134.84;;;27.31
67509;BMP280;54354;44.724;11.284;2022-10-26T13:41:44;102122.72;;;27.27
67509;BMP280;54354;44.724;11.284;2022-10-26T13:44:29;102124.44;;;27.30
67509;BMP280;54354;44.724;11.284;2022-10-26T13:47:00;102124.91;;;27.28
67509;BMP280;54354;44.724;11.284;2022-10-26T13:49:29;102128.41;;;27.29
67509;BMP280;54354;44.724;11.284;2022-10-26T13:52:01;102123.72;;;27.29
67509;BMP280;54354;44.724;11.284;2022-10-26T13:59:31;102124.19;;;27.33
67509;BMP280;54354;44.724;11.284;2022-10-26T14:02:22;102126.69;;;27.37
67509;BMP280;54354;44.724;11.284;2022-10-26T14:05:02;102126.69;;;27.37
67509;BMP280;54354;44.724;11.284;2022-10-26T14:07:33;102127.16;;;27.35
67509;BMP280;54354;44.724;11.284;2022-10-26T14:10:01;102126.69;;;27.37
67509;BMP280;54354;44.724;11.284;2022-10-26T14:12:26;102130.88;;;27.38
67509;BMP280;54354;44.724;11.284;2022-10-26T14:15:08;102132.63;;;27.35
67509;BMP280;54354;44.724;11.284;2022-10-26T14:17:34;102130.16;;;27.38
67509;BMP280;54354;44.724;11.284;2022-10-26T14:19:59;102132.13;;;27.37
67509;BMP280;54354;44.724;11.284;2022-10-26T14:22:26;102131.88;;;27.35
67509;BMP280;54354;44.724;11.284;2022-10-26T14:24:55;102127.66;;;27.34
67509;BMP280;54354;44.724;11.284;2022-10-26T14:27:23;102129.66;;;27.33
67509;BMP280;54354;44.724;11.284;2022-10-26T14:29:51;102124.94;;;27.34
67509;BMP280;54354;44.724;11.284;2022-10-26T14:32:28;102129.66;;;27.33
67509;BMP280;54354;44.724;11.284;2022-10-26T14:34:56;102140.78;;;27.35
67509;BMP280;54354;44.724;11.284;2022-10-26T14:37:38;102126.19;;;27.33
67509;BMP280;54354;44.724;11.284;2022-10-26T14:40:06;102135.09;;;27.33
67509;BMP280;54354;44.724;11.284;2022-10-26T14:42:39;102127.44;;;27.26
67509;BMP280;54354;44.724;11.284;2022-10-26T14:45:30;102129.91;;;27.30
67509;BMP280;54354;44.724;11.284;2022-10-26T14:47:57;102135.59;;;27.32
67509;BMP280;54354;44.724;11.284;2022-10-26T14:50:24;102142.00;;;27.29
67509;BMP280;54354;44.724;11.284;2022-10-26T14:53:13;102142.25;;;27.31
67509;BMP280;54354;44.724;11.284;2022-10-26T14:55:50;102139.28;;;27.29
67509;BMP280;54354;44.724;11.284;2022-10-26T14:58:20;102132.13;;;27.26
67509;BMP280;54354;44.724;11.284;2022-10-26T15:00:46;102147.22;;;27.27
67509;BMP280;54354;44.724;11.284;2022-10-26T15:03:15;102138.56;;;27.23
67509;BMP280;54354;44.724;11.284;2022-10-26T15:05:41;102140.03;;;27.24
67509;BMP280;54354;44.724;11.284;2022-10-26T15:08:59;102142.22;;;27.25
67509;BMP280;54354;44.724;11.284;2022-10-26T15:11:17;102149.66;;;27.25
67509;BMP280;54354;44.724;11.284;2022-10-26T15:13:43;102149.19;;;27.21
67509;BMP280;54354;44.724;11.284;2022-10-26T15:16:19;102152.91;;;27.18
67509;BMP280;54354;44.724;11.284;2022-10-26T15:18:47;102147.91;;;27.16
67509;BMP280;54354;44.724;11.284;2022-10-26T15:21:25;102149.69;;;27.53
67509;BMP280;54354;44.724;11.284;2022-10-26T15:23:52;102151.16;;;27.26
67509;BMP280;54354;44.724;11.284;2022-10-26T15:26:19;102142.47;;;27.16
67509;BMP280;54354;44.724;11.284;2022-10-26T15:28:44;102145.97;;;27.11
67509;BMP280;54354;44.724;11.284;2022-10-26T15:33:41;102149.16;;;27.04
67509;BMP280;54354;44.724;11.284;2022-10-26T15:38:33;102162.53;;;27.02
67509;BMP280;54354;44.724;11.284;2022-10-26T15:40:58;102158.28;;;27.01
67509;BMP280;54354;44.724;11.284;2022-10-26T15:43:24;102160.03;;;26.98
67509;BMP280;54354;44.724;11.284;2022-10-26T15:45:49;102161.78;;;26.96
67509;BMP280;54354;44.724;11.284;2022-10-26T15:48:21;102160.50;;;26.91
67509;BMP280;54354;44.724;11.284;2022-10-26T15:50:47;102165.94;;;26.91
67509;BMP280;54354;44.724;11.284;2022-10-26T15:53:17;102159.47;;;26.83
67509;BMP280;54354;44.724;11.284;2022-10-26T15:55:43;102167.16;;;26.85
67509;BMP280;54354;44.724;11.284;2022-10-26T15:58:10;102166.41;;;26.79